This is the latest recevied weather packets stored in our database for station/object VE3EP-1. If no packets are shown the sender has not sent any weather packets the latest 10 day(s).
| Time | Temp. | Humidity | Pressure | Rain* | Wind** | Luminosity | Snow |
|---|---|---|---|---|---|---|---|
| 1777667529 | 6.11° C | 66% | 1014.3 hPa | 0 mm | - | - | - |
| 1777666929 | 6.67° C | 63% | 1014.6 hPa | 0 mm | - | - | - |
| 1777662128 | 7.22° C | 57% | 1014.9 hPa | 0 mm | - | - | - |
| 1777661528 | 7.22° C | 53% | 1015.2 hPa | 0 mm | - | - | - |
| 1777660928 | 7.78° C | 54% | 1015.1 hPa | 0 mm | - | - | - |
| 1777659728 | 8.33° C | 51% | 1015.4 hPa | 0 mm | - | - | - |
| 1777658528 | 8.89° C | 49% | 1015.3 hPa | 0 mm | - | - | - |
| 1777657929 | 9.44° C | 48% | 1015.1 hPa | 0 mm | - | - | - |
| 1777657329 | 10° C | 46% | 1015.4 hPa | 0 mm | - | - | - |
| 1777656728 | 9.44° C | 50% | 1015.1 hPa | 0 mm | - | - | - |
| 1777656129 | 10° C | 50% | 1015.2 hPa | 0 mm | - | - | - |
| 1777655528 | 10° C | 44% | 1015.2 hPa | 0 mm | - | - | - |
| 1777653728 | 8.89° C | 41% | 1015.4 hPa | 0 mm | - | - | - |
| 1777653129 | 9.44° C | 39% | 1015.5 hPa | 0 mm | - | - | - |
| 1777651928 | 8.33° C | 48% | 1015.7 hPa | 0 mm | - | - | - |
| 1777638728 | 6.11° C | 61% | 1016.3 hPa | 0 mm | - | - | - |
| 1777638128 | 6.11° C | 58% | 1016.5 hPa | 0 mm | - | - | - |
| 1777636928 | 5.56° C | 61% | 1016.6 hPa | 0 mm | - | - | - |
| 1777635728 | 5.56° C | 61% | 1016.5 hPa | 0 mm | - | - | - |
| 1777635128 | 5.56° C | 65% | 1016.5 hPa | 0 mm | - | - | - |
| 1777634530 | 3.89° C | 70% | 1016.4 hPa | 0 mm | - | - | - |
| 1777633330 | 1.67° C | 79% | 1016.3 hPa | 0 mm | - | - | - |
| 1777632728 | 1.11° C | 80% | 1016.1 hPa | 0 mm | - | - | - |
| 1777631530 | 1.11° C | 77% | 1015.9 hPa | 0 mm | - | - | - |
| 1777630928 | 1.67° C | 77% | 1015.9 hPa | 0 mm | - | - | - |
* Rain latest hour (hover to see other rain measurements)
** Current wind speed in m/s (hover to see current wind gust speed)